createdAt,value
2019-02-05T00:00:00.486Z,26.82
2019-02-05T00:05:05.740Z,27.60
2019-02-05T00:10:10.930Z,26.73
2019-02-05T00:15:16.432Z,25.75
2019-02-05T00:20:20.531Z,27.73
2019-02-05T00:25:25.980Z,24.25
2019-02-05T00:30:34.040Z,27.85
2019-02-05T00:35:39.290Z,28.10
2019-02-05T00:40:43.412Z,24.43
2019-02-05T00:45:47.856Z,23.67
2019-02-05T00:50:53.014Z,27.65
2019-02-05T00:55:57.369Z,25.90
2019-02-05T01:01:01.398Z,26.42
2019-02-05T01:06:05.889Z,24.67
2019-02-05T01:11:10.341Z,25.75
2019-02-05T01:16:14.657Z,25.57
2019-02-05T01:21:19.743Z,27.10
2019-02-05T01:26:29.013Z,27.98
2019-02-05T01:31:29.663Z,24.65
2019-02-05T01:36:35.471Z,25.75
2019-02-05T01:41:39.376Z,26.25
2019-02-05T01:46:43.883Z,26.35
2019-02-05T01:51:48.808Z,26.85
2019-02-05T01:56:53.275Z,28.00
2019-02-05T02:01:57.102Z,27.95
2019-02-05T02:07:01.006Z,29.70
2019-02-05T02:12:07.373Z,30.85
2019-02-05T02:17:12.075Z,24.90
2019-02-05T02:22:20.679Z,23.47
2019-02-05T02:27:25.478Z,23.07
2019-02-05T02:32:29.928Z,22.73
2019-02-05T02:37:33.639Z,21.12
2019-02-05T02:42:37.464Z,21.50
2019-02-05T02:47:41.874Z,21.95
2019-02-05T02:52:45.586Z,24.35
2019-02-05T02:57:50.068Z,24.05
2019-02-05T03:02:53.980Z,23.22
2019-02-05T03:07:59.691Z,21.75
2019-02-05T03:13:03.690Z,20.88
2019-02-05T03:18:10.047Z,22.22
2019-02-05T03:23:15.316Z,22.80
2019-02-05T03:28:20.051Z,23.45
2019-02-05T03:33:26.923Z,23.30
2019-02-05T03:38:31.173Z,22.55
2019-02-05T03:43:36.714Z,22.20
2019-02-05T03:48:41.785Z,21.05
2019-02-05T03:53:50.995Z,19.82
2019-02-05T03:59:31.710Z,22.45
2019-02-05T04:05:28.692Z,22.20
2019-02-05T04:11:00.205Z,23.07
2019-02-05T04:16:47.032Z,21.25
2019-02-05T04:22:41.770Z,21.55
2019-02-05T04:28:21.667Z,20.25
2019-02-05T04:34:06.344Z,20.30
2019-02-05T04:39:53.469Z,21.60
2019-02-05T04:45:47.645Z,22.00
2019-02-05T04:51:44.642Z,23.00
2019-02-05T04:57:56.839Z,21.48
2019-02-05T05:03:44.841Z,22.15
2019-02-05T05:09:10.988Z,20.90
2019-02-05T05:14:14.975Z,18.80
2019-02-05T05:19:19.365Z,18.37
2019-02-05T05:24:23.792Z,19.70
2019-02-05T05:29:28.210Z,19.75
2019-02-05T05:34:34.591Z,18.32
2019-02-05T05:39:38.442Z,18.90
2019-02-05T05:44:42.293Z,22.77
2019-02-05T05:49:45.989Z,16.48
2019-02-05T05:54:49.667Z,15.40
2019-02-05T05:59:53.874Z,13.43
2019-02-05T06:04:57.573Z,16.48
2019-02-05T06:10:01.232Z,12.43
2019-02-05T06:15:07.234Z,15.43
2019-02-05T06:20:14.259Z,14.35
2019-02-05T06:25:18.432Z,15.78
2019-02-05T06:30:23.041Z,17.80
2019-02-05T06:35:27.460Z,13.85
2019-02-05T06:40:34.862Z,18.32
2019-02-05T06:45:41.475Z,14.50
2019-02-05T06:50:44.741Z,20.72
2019-02-05T06:55:48.765Z,21.02
2019-02-05T07:00:52.556Z,20.43
2019-02-05T07:05:56.532Z,22.30
2019-02-05T07:11:00.450Z,22.82
2019-02-05T07:16:04.310Z,11.93
2019-02-05T07:21:08.185Z,11.50
2019-02-05T07:26:12.395Z,10.40
2019-02-05T07:31:16.473Z,8.20
2019-02-05T07:36:20.857Z,7.80
2019-02-05T07:41:24.655Z,9.05
2019-02-05T07:46:28.650Z,9.18
2019-02-05T07:51:32.613Z,13.38
2019-02-05T07:56:36.520Z,13.30
2019-02-05T08:01:40.420Z,17.02
2019-02-05T08:06:44.201Z,36.42
2019-02-05T08:11:48.971Z,77.47
2019-02-05T08:16:52.893Z,29.05
2019-02-05T08:21:57.106Z,22.05
2019-02-05T08:27:02.268Z,21.17
2019-02-05T08:32:06.183Z,22.10
2019-02-05T08:37:10.315Z,24.92
2019-02-05T08:42:14.602Z,31.65
2019-02-05T08:47:18.873Z,27.00
2019-02-05T08:52:22.906Z,25.95
2019-02-05T08:57:26.895Z,23.38
2019-02-05T09:02:30.722Z,21.68
2019-02-05T09:07:34.546Z,20.88
2019-02-05T09:12:40.501Z,20.70
2019-02-05T09:17:44.334Z,21.95
2019-02-05T09:22:48.488Z,18.90
2019-02-05T09:27:52.597Z,20.60
2019-02-05T09:32:57.906Z,20.55
2019-02-05T09:38:02.105Z,17.27
2019-02-05T09:43:05.870Z,16.48
2019-02-05T09:48:10.062Z,18.80
2019-02-05T09:53:14.668Z,15.08
2019-02-05T09:58:18.701Z,16.07
2019-02-05T10:03:22.562Z,13.93
2019-02-05T10:08:27.519Z,13.60
2019-02-05T10:13:31.709Z,13.48
2019-02-05T10:18:36.414Z,13.62
2019-02-05T10:23:40.336Z,12.68
2019-02-05T10:28:45.046Z,12.07
2019-02-05T10:33:55.387Z,10.25
2019-02-05T10:38:58.123Z,10.15
2019-02-05T10:44:05.521Z,8.18
2019-02-05T10:49:09.221Z,9.53
2019-02-05T10:54:12.919Z,9.43
2019-02-05T10:59:20.442Z,8.95
2019-02-05T11:04:24.470Z,11.15
2019-02-05T11:09:28.461Z,9.53
2019-02-05T11:14:33.439Z,8.53
2019-02-05T11:19:39.013Z,9.30
2019-02-05T11:24:43.221Z,7.42
2019-02-05T11:29:49.086Z,8.23
2019-02-05T11:34:53.014Z,8.95
2019-02-05T11:39:57.624Z,10.53
2019-02-05T11:45:02.016Z,9.77
2019-02-05T11:50:10.356Z,8.75
2019-02-05T11:55:20.363Z,9.10
2019-02-05T12:00:44.171Z,7.45
2019-02-05T12:05:48.429Z,7.40
2019-02-05T12:10:53.273Z,8.93
2019-02-05T12:15:57.173Z,7.37
2019-02-05T12:21:01.263Z,7.28
2019-02-05T12:26:05.760Z,7.50
2019-02-05T12:31:09.635Z,12.80
2019-02-05T12:36:13.581Z,12.10
2019-02-05T12:41:18.449Z,9.88
2019-02-05T12:46:23.509Z,7.40
2019-02-05T12:51:27.481Z,7.05
2019-02-05T12:56:34.782Z,5.12
2019-02-05T13:01:38.805Z,57.33
2019-02-05T13:06:42.585Z,6.47
2019-02-05T13:11:50.269Z,3.87
2019-02-05T13:16:54.980Z,4.47
2019-02-05T13:22:00.623Z,8.55
2019-02-05T13:27:04.661Z,3.98
2019-02-05T13:32:08.445Z,3.33
2019-02-05T13:37:12.152Z,3.40
2019-02-05T13:42:16.755Z,4.10
2019-02-05T13:47:21.157Z,3.35
2019-02-05T13:52:24.889Z,4.15
2019-02-05T13:57:28.579Z,4.00
2019-02-05T14:02:32.386Z,3.25
2019-02-05T14:07:39.472Z,3.92
2019-02-05T14:12:45.251Z,5.00
2019-02-05T14:17:49.295Z,4.80
2019-02-05T14:22:54.177Z,4.50
2019-02-05T14:27:57.968Z,5.78
2019-02-05T14:33:01.910Z,5.45
2019-02-05T14:38:07.420Z,7.10
2019-02-05T14:43:12.282Z,6.75
2019-02-05T14:48:16.779Z,14.45
2019-02-05T14:53:20.484Z,27.32
2019-02-05T14:58:24.287Z,15.18
2019-02-05T15:03:28.253Z,17.48
2019-02-05T15:08:31.958Z,17.30
2019-02-05T15:13:35.997Z,17.37
2019-02-05T15:18:39.824Z,14.65
2019-02-05T15:23:43.712Z,23.70
2019-02-05T15:28:48.356Z,15.83
2019-02-05T15:33:58.004Z,15.70
2019-02-05T15:39:01.953Z,16.87
2019-02-05T15:44:08.552Z,13.68
2019-02-05T15:49:12.246Z,11.90
2019-02-05T15:54:16.189Z,11.50
2019-02-05T15:59:20.214Z,10.38
2019-02-05T16:04:24.110Z,11.97
2019-02-05T16:09:29.072Z,12.23
2019-02-05T16:14:32.871Z,11.28
2019-02-05T16:19:36.767Z,14.68
2019-02-05T16:24:41.507Z,20.85
2019-02-05T16:29:45.280Z,15.63
2019-02-05T16:34:49.254Z,14.05
2019-02-05T16:39:53.149Z,12.43
2019-02-05T16:44:57.190Z,11.88
2019-02-05T16:50:02.750Z,10.18
2019-02-05T16:55:07.188Z,11.40
2019-02-05T17:00:25.590Z,10.25
2019-02-05T17:05:32.880Z,8.40
2019-02-05T17:10:36.961Z,11.80
2019-02-05T17:15:41.087Z,11.08
2019-02-05T17:20:44.921Z,12.98
2019-02-05T17:25:48.783Z,11.57
2019-02-05T17:30:53.958Z,8.40
2019-02-05T17:35:58.326Z,11.60
2019-02-05T17:41:04.395Z,13.78
2019-02-05T17:46:08.775Z,14.87
2019-02-05T17:51:12.573Z,8.25
2019-02-05T17:56:16.438Z,12.15
2019-02-05T18:01:20.666Z,7.37
2019-02-05T18:06:25.199Z,9.90
2019-02-05T18:11:29.133Z,12.13
2019-02-05T18:16:32.951Z,12.98
2019-02-05T18:21:37.602Z,15.48
2019-02-05T18:26:41.461Z,11.15
2019-02-05T18:31:45.527Z,12.90
2019-02-05T18:36:49.976Z,12.58
2019-02-05T18:41:53.875Z,9.65
2019-02-05T18:46:58.468Z,10.15
2019-02-05T18:52:03.622Z,12.03
2019-02-05T18:57:07.815Z,8.43
2019-02-05T19:02:12.959Z,11.28
2019-02-05T19:07:17.685Z,10.58
2019-02-05T19:12:21.611Z,11.18
2019-02-05T19:17:25.506Z,8.20
2019-02-05T19:22:29.310Z,10.58
2019-02-05T19:27:33.687Z,13.62
2019-02-05T19:32:39.612Z,7.97
2019-02-05T19:37:43.940Z,9.88
2019-02-05T19:42:47.846Z,8.93
2019-02-05T19:47:52.026Z,10.30
2019-02-05T19:52:55.906Z,8.73
2019-02-05T19:58:00.207Z,8.88
2019-02-05T20:03:04.107Z,15.45
2019-02-05T20:08:09.052Z,9.20
2019-02-05T20:13:12.764Z,8.50
2019-02-05T20:18:16.643Z,7.35
2019-02-05T20:23:20.401Z,8.83
2019-02-05T20:28:24.448Z,7.62
2019-02-05T20:33:28.679Z,6.97
2019-02-05T20:38:32.870Z,7.70
2019-02-05T20:43:36.883Z,7.00
2019-02-05T20:48:41.162Z,7.80
2019-02-05T20:53:45.126Z,7.50
2019-02-05T20:58:52.513Z,8.98
2019-02-05T21:04:01.317Z,10.25
2019-02-05T21:09:26.179Z,8.23
2019-02-05T21:14:29.909Z,7.58
2019-02-05T21:19:37.093Z,8.55
2019-02-05T21:24:43.662Z,8.28
2019-02-05T21:29:49.217Z,7.25
2019-02-05T21:34:57.683Z,7.78
2019-02-05T21:40:02.865Z,8.38
2019-02-05T21:45:09.294Z,5.75
2019-02-05T21:50:16.550Z,6.53
2019-02-05T21:55:21.650Z,6.03
2019-02-05T22:00:29.213Z,6.40
2019-02-05T22:05:36.902Z,5.37
2019-02-05T22:10:41.486Z,7.15
2019-02-05T22:15:45.637Z,7.62
2019-02-05T22:20:49.830Z,5.78
2019-02-05T22:25:54.424Z,5.45
2019-02-05T22:30:58.445Z,6.15
2019-02-05T22:36:02.956Z,5.17
2019-02-05T22:41:06.926Z,6.62
2019-02-05T22:46:10.764Z,5.78
2019-02-05T22:51:15.274Z,5.95
2019-02-05T22:56:19.066Z,5.92
2019-02-05T23:01:46.605Z,5.62
2019-02-05T23:07:20.342Z,5.85
2019-02-05T23:12:28.286Z,5.50
2019-02-05T23:17:32.011Z,7.75
2019-02-05T23:22:36.432Z,6.40
2019-02-05T23:27:40.860Z,6.33
2019-02-05T23:32:44.887Z,6.92
2019-02-05T23:37:48.712Z,7.30
2019-02-05T23:42:52.993Z,5.58
2019-02-05T23:47:57.173Z,6.55
2019-02-05T23:53:01.869Z,6.15
2019-02-05T23:58:05.696Z,6.67
